sensor_id;sensor_type;location;lat;lon;timestamp;temperature;humidity
46364;DHT22;32071;49.036;9.344;2024-01-15T00:01:47;-2.10;99.90
46364;DHT22;32071;49.036;9.344;2024-01-15T00:04:13;-2.10;99.90
46364;DHT22;32071;49.036;9.344;2024-01-15T00:06:39;-2.10;99.90
46364;DHT22;32071;49.036;9.344;2024-01-15T00:09:04;-2.10;99.90
46364;DHT22;32071;49.036;9.344;2024-01-15T00:11:32;-2.00;99.90
46364;DHT22;32071;49.036;9.344;2024-01-15T00:13:57;-2.00;99.90
46364;DHT22;32071;49.036;9.344;2024-01-15T00:16:23;-2.00;99.90
46364;DHT22;32071;49.036;9.344;2024-01-15T00:18:49;-2.00;99.90
46364;DHT22;32071;49.036;9.344;2024-01-15T00:21:16;-2.00;99.90
46364;DHT22;32071;49.036;9.344;2024-01-15T00:23:45;-2.00;99.90
46364;DHT22;32071;49.036;9.344;2024-01-15T00:26:11;-2.00;99.90
46364;DHT22;32071;49.036;9.344;2024-01-15T00:28:37;-1.90;99.90
46364;DHT22;32071;49.036;9.344;2024-01-15T00:31:04;-1.90;99.90
46364;DHT22;32071;49.036;9.344;2024-01-15T00:33:30;-1.90;99.90
46364;DHT22;32071;49.036;9.344;2024-01-15T00:35:56;-1.80;99.90
46364;DHT22;32071;49.036;9.344;2024-01-15T00:38:21;-1.80;99.90
46364;DHT22;32071;49.036;9.344;2024-01-15T00:40:47;-1.80;99.90
46364;DHT22;32071;49.036;9.344;2024-01-15T00:43:13;-1.80;99.90
46364;DHT22;32071;49.036;9.344;2024-01-15T00:45:38;-1.80;99.90
46364;DHT22;32071;49.036;9.344;2024-01-15T00:48:04;-1.80;99.90
46364;DHT22;32071;49.036;9.344;2024-01-15T00:50:30;-1.80;99.90
46364;DHT22;32071;49.036;9.344;2024-01-15T00:52:56;-1.80;99.90
46364;DHT22;32071;49.036;9.344;2024-01-15T00:55:21;-1.80;99.90
46364;DHT22;32071;49.036;9.344;2024-01-15T00:57:47;-1.80;99.90
46364;DHT22;32071;49.036;9.344;2024-01-15T01:00:13;-1.80;99.90
46364;DHT22;32071;49.036;9.344;2024-01-15T01:02:38;-1.80;99.90
46364;DHT22;32071;49.036;9.344;2024-01-15T01:05:04;-1.80;99.90
46364;DHT22;32071;49.036;9.344;2024-01-15T01:07:30;-1.80;99.90
46364;DHT22;32071;49.036;9.344;2024-01-15T01:09:55;-1.70;99.90
46364;DHT22;32071;49.036;9.344;2024-01-15T01:12:21;-1.70;99.90
46364;DHT22;32071;49.036;9.344;2024-01-15T01:14:47;-1.60;99.90
46364;DHT22;32071;49.036;9.344;2024-01-15T01:17:12;-1.60;99.90
46364;DHT22;32071;49.036;9.344;2024-01-15T01:19:38;-1.60;99.90
46364;DHT22;32071;49.036;9.344;2024-01-15T01:22:03;-1.60;99.90
46364;DHT22;32071;49.036;9.344;2024-01-15T01:24:29;-1.60;99.90
46364;DHT22;32071;49.036;9.344;2024-01-15T01:26:55;-1.60;99.90
46364;DHT22;32071;49.036;9.344;2024-01-15T01:29:20;-1.60;99.90
46364;DHT22;32071;49.036;9.344;2024-01-15T01:31:46;-1.60;99.90
46364;DHT22;32071;49.036;9.344;2024-01-15T01:34:15;-1.60;99.90
46364;DHT22;32071;49.036;9.344;2024-01-15T01:36:42;-1.60;99.90
46364;DHT22;32071;49.036;9.344;2024-01-15T01:39:08;-1.50;99.90
46364;DHT22;32071;49.036;9.344;2024-01-15T01:41:33;-1.50;99.90
46364;DHT22;32071;49.036;9.344;2024-01-15T01:43:59;-1.50;99.90
46364;DHT22;32071;49.036;9.344;2024-01-15T01:46:27;-1.40;99.90
46364;DHT22;32071;49.036;9.344;2024-01-15T01:48:55;-1.40;99.90
46364;DHT22;32071;49.036;9.344;2024-01-15T01:51:22;-1.40;99.90
46364;DHT22;32071;49.036;9.344;2024-01-15T01:53:48;-1.40;99.90
46364;DHT22;32071;49.036;9.344;2024-01-15T01:56:15;-1.40;99.90
46364;DHT22;32071;49.036;9.344;2024-01-15T01:58:44;-1.40;99.90
46364;DHT22;32071;49.036;9.344;2024-01-15T02:01:10;-1.30;99.90
46364;DHT22;32071;49.036;9.344;2024-01-15T02:03:37;-1.30;99.90
46364;DHT22;32071;49.036;9.344;2024-01-15T02:06:03;-1.30;99.90
46364;DHT22;32071;49.036;9.344;2024-01-15T02:08:29;-1.30;99.90
46364;DHT22;32071;49.036;9.344;2024-01-15T02:10:55;-1.30;99.90
46364;DHT22;32071;49.036;9.344;2024-01-15T02:13:21;-1.30;99.90
46364;DHT22;32071;49.036;9.344;2024-01-15T02:15:46;-1.30;99.90
46364;DHT22;32071;49.036;9.344;2024-01-15T02:18:12;-1.20;99.90
46364;DHT22;32071;49.036;9.344;2024-01-15T02:20:37;-1.30;99.90
46364;DHT22;32071;49.036;9.344;2024-01-15T02:23:15;-1.20;99.90
46364;DHT22;32071;49.036;9.344;2024-01-15T02:25:43;-1.20;99.90
46364;DHT22;32071;49.036;9.344;2024-01-15T02:28:11;-1.20;99.90
46364;DHT22;32071;49.036;9.344;2024-01-15T02:30:38;-1.20;99.90
46364;DHT22;32071;49.036;9.344;2024-01-15T02:33:05;-1.20;99.90
46364;DHT22;32071;49.036;9.344;2024-01-15T02:35:30;-1.20;99.90
46364;DHT22;32071;49.036;9.344;2024-01-15T02:37:56;-1.20;99.90
46364;DHT22;32071;49.036;9.344;2024-01-15T02:40:21;-1.20;99.90
46364;DHT22;32071;49.036;9.344;2024-01-15T02:42:47;-1.20;99.90
46364;DHT22;32071;49.036;9.344;2024-01-15T02:45:12;-1.10;99.90
46364;DHT22;32071;49.036;9.344;2024-01-15T02:47:38;-1.10;99.90
46364;DHT22;32071;49.036;9.344;2024-01-15T02:50:04;-1.10;99.90
46364;DHT22;32071;49.036;9.344;2024-01-15T02:52:30;-1.10;99.90
46364;DHT22;32071;49.036;9.344;2024-01-15T02:54:55;-1.10;99.90
46364;DHT22;32071;49.036;9.344;2024-01-15T02:57:21;-1.10;99.90
46364;DHT22;32071;49.036;9.344;2024-01-15T02:59:46;-1.10;99.90
46364;DHT22;32071;49.036;9.344;2024-01-15T03:02:12;-1.00;99.90
46364;DHT22;32071;49.036;9.344;2024-01-15T03:04:43;-1.00;99.90
46364;DHT22;32071;49.036;9.344;2024-01-15T03:07:09;-1.00;99.90
46364;DHT22;32071;49.036;9.344;2024-01-15T03:09:34;-1.00;99.90
46364;DHT22;32071;49.036;9.344;2024-01-15T03:12:00;-1.00;99.90
46364;DHT22;32071;49.036;9.344;2024-01-15T03:14:25;-1.00;99.90
46364;DHT22;32071;49.036;9.344;2024-01-15T03:16:52;-1.00;99.90
46364;DHT22;32071;49.036;9.344;2024-01-15T03:19:17;-1.00;99.90
46364;DHT22;32071;49.036;9.344;2024-01-15T03:21:43;-1.00;99.90
46364;DHT22;32071;49.036;9.344;2024-01-15T03:24:08;-1.00;99.90
46364;DHT22;32071;49.036;9.344;2024-01-15T03:26:34;-0.90;99.90
46364;DHT22;32071;49.036;9.344;2024-01-15T03:28:59;-0.90;99.90
46364;DHT22;32071;49.036;9.344;2024-01-15T03:31:25;-1.00;99.90
46364;DHT22;32071;49.036;9.344;2024-01-15T03:33:51;-0.90;99.90
46364;DHT22;32071;49.036;9.344;2024-01-15T03:36:16;-0.90;99.90
46364;DHT22;32071;49.036;9.344;2024-01-15T03:38:42;-0.90;99.90
46364;DHT22;32071;49.036;9.344;2024-01-15T03:41:08;-0.90;99.90
46364;DHT22;32071;49.036;9.344;2024-01-15T03:43:33;-0.90;99.90
46364;DHT22;32071;49.036;9.344;2024-01-15T03:45:59;-0.90;99.90
46364;DHT22;32071;49.036;9.344;2024-01-15T03:48:24;-0.90;99.90
46364;DHT22;32071;49.036;9.344;2024-01-15T03:50:50;-0.90;99.90
46364;DHT22;32071;49.036;9.344;2024-01-15T03:53:15;-0.90;99.90
46364;DHT22;32071;49.036;9.344;2024-01-15T03:55:42;-0.90;99.90
46364;DHT22;32071;49.036;9.344;2024-01-15T03:58:08;-0.90;99.90
46364;DHT22;32071;49.036;9.344;2024-01-15T04:00:34;-0.90;99.90
46364;DHT22;32071;49.036;9.344;2024-01-15T04:02:59;-0.90;99.90
46364;DHT22;32071;49.036;9.344;2024-01-15T04:05:25;-0.90;99.90
46364;DHT22;32071;49.036;9.344;2024-01-15T04:07:51;-0.90;99.90
46364;DHT22;32071;49.036;9.344;2024-01-15T04:10:17;-0.90;99.90
46364;DHT22;32071;49.036;9.344;2024-01-15T04:12:42;-0.90;99.90
46364;DHT22;32071;49.036;9.344;2024-01-15T04:15:08;-0.90;99.90
46364;DHT22;32071;49.036;9.344;2024-01-15T04:17:34;-0.90;99.90
46364;DHT22;32071;49.036;9.344;2024-01-15T04:19:59;-0.90;99.90
46364;DHT22;32071;49.036;9.344;2024-01-15T04:22:26;-0.90;99.90
46364;DHT22;32071;49.036;9.344;2024-01-15T04:24:52;-0.90;99.90
46364;DHT22;32071;49.036;9.344;2024-01-15T04:27:17;-0.90;99.90
46364;DHT22;32071;49.036;9.344;2024-01-15T04:29:43;-0.90;99.90
46364;DHT22;32071;49.036;9.344;2024-01-15T04:32:10;-0.90;99.90
46364;DHT22;32071;49.036;9.344;2024-01-15T04:34:35;-0.80;99.90
46364;DHT22;32071;49.036;9.344;2024-01-15T04:37:01;-0.80;99.90
46364;DHT22;32071;49.036;9.344;2024-01-15T04:39:27;-0.80;99.90
46364;DHT22;32071;49.036;9.344;2024-01-15T04:41:52;-0.80;99.90
46364;DHT22;32071;49.036;9.344;2024-01-15T04:44:18;-0.80;99.90
46364;DHT22;32071;49.036;9.344;2024-01-15T04:46:44;-0.80;99.90
46364;DHT22;32071;49.036;9.344;2024-01-15T04:49:11;-0.80;99.90
46364;DHT22;32071;49.036;9.344;2024-01-15T04:51:36;-0.80;99.90
46364;DHT22;32071;49.036;9.344;2024-01-15T04:54:02;-0.80;99.90
46364;DHT22;32071;49.036;9.344;2024-01-15T04:56:27;-0.80;99.90
46364;DHT22;32071;49.036;9.344;2024-01-15T04:58:53;-0.80;99.90
46364;DHT22;32071;49.036;9.344;2024-01-15T05:01:18;-0.80;99.90
46364;DHT22;32071;49.036;9.344;2024-01-15T05:03:44;-0.80;99.90
46364;DHT22;32071;49.036;9.344;2024-01-15T05:06:10;-0.80;99.90
46364;DHT22;32071;49.036;9.344;2024-01-15T05:08:35;-0.80;99.90
46364;DHT22;32071;49.036;9.344;2024-01-15T05:11:01;-0.70;99.90
46364;DHT22;32071;49.036;9.344;2024-01-15T05:13:26;-0.70;99.90
46364;DHT22;32071;49.036;9.344;2024-01-15T05:15:52;-0.70;99.90
46364;DHT22;32071;49.036;9.344;2024-01-15T05:18:18;-0.70;99.90
46364;DHT22;32071;49.036;9.344;2024-01-15T05:20:43;-0.70;99.90
46364;DHT22;32071;49.036;9.344;2024-01-15T05:23:09;-0.60;99.90
46364;DHT22;32071;49.036;9.344;2024-01-15T05:25:35;-0.60;99.90
46364;DHT22;32071;49.036;9.344;2024-01-15T05:28:01;-0.60;99.90
46364;DHT22;32071;49.036;9.344;2024-01-15T05:30:26;-0.60;99.90
46364;DHT22;32071;49.036;9.344;2024-01-15T05:32:52;-0.60;99.90
46364;DHT22;32071;49.036;9.344;2024-01-15T05:35:17;-0.60;99.90
46364;DHT22;32071;49.036;9.344;2024-01-15T05:37:45;-0.50;99.90
46364;DHT22;32071;49.036;9.344;2024-01-15T05:40:12;-0.50;99.90
46364;DHT22;32071;49.036;9.344;2024-01-15T05:42:38;-0.50;99.90
46364;DHT22;32071;49.036;9.344;2024-01-15T05:45:05;-0.50;99.90
46364;DHT22;32071;49.036;9.344;2024-01-15T05:47:30;-0.50;99.90
46364;DHT22;32071;49.036;9.344;2024-01-15T05:49:56;-0.50;99.90
46364;DHT22;32071;49.036;9.344;2024-01-15T05:52:22;-0.50;99.90
46364;DHT22;32071;49.036;9.344;2024-01-15T05:54:49;-0.40;99.90
46364;DHT22;32071;49.036;9.344;2024-01-15T05:57:15;-0.40;99.90
46364;DHT22;32071;49.036;9.344;2024-01-15T05:59:40;-0.40;99.90
46364;DHT22;32071;49.036;9.344;2024-01-15T06:02:07;-0.40;99.90
46364;DHT22;32071;49.036;9.344;2024-01-15T06:04:33;-0.40;99.90
46364;DHT22;32071;49.036;9.344;2024-01-15T06:06:58;-0.40;99.90
46364;DHT22;32071;49.036;9.344;2024-01-15T06:09:24;-0.40;99.90
46364;DHT22;32071;49.036;9.344;2024-01-15T06:11:49;-0.40;99.90
46364;DHT22;32071;49.036;9.344;2024-01-15T06:14:15;-0.40;99.90
46364;DHT22;32071;49.036;9.344;2024-01-15T06:16:40;-0.40;99.90
46364;DHT22;32071;49.036;9.344;2024-01-15T06:19:06;-0.40;99.90
46364;DHT22;32071;49.036;9.344;2024-01-15T06:21:31;-0.40;99.90
46364;DHT22;32071;49.036;9.344;2024-01-15T06:23:57;-0.40;99.90
46364;DHT22;32071;49.036;9.344;2024-01-15T06:26:23;-0.30;99.90
46364;DHT22;32071;49.036;9.344;2024-01-15T06:28:49;-0.30;99.90
46364;DHT22;32071;49.036;9.344;2024-01-15T06:31:14;-0.40;99.90
46364;DHT22;32071;49.036;9.344;2024-01-15T06:33:40;-0.30;99.90
46364;DHT22;32071;49.036;9.344;2024-01-15T06:36:06;-0.30;99.90
46364;DHT22;32071;49.036;9.344;2024-01-15T06:38:31;-0.30;99.90
46364;DHT22;32071;49.036;9.344;2024-01-15T06:40:57;-0.30;99.90
46364;DHT22;32071;49.036;9.344;2024-01-15T06:43:23;-0.30;99.90
46364;DHT22;32071;49.036;9.344;2024-01-15T06:45:48;-0.30;99.90
46364;DHT22;32071;49.036;9.344;2024-01-15T06:48:15;-0.30;99.90
46364;DHT22;32071;49.036;9.344;2024-01-15T06:50:42;-0.30;99.90
46364;DHT22;32071;49.036;9.344;2024-01-15T06:53:08;-0.30;99.90
46364;DHT22;32071;49.036;9.344;2024-01-15T06:55:33;-0.30;99.90
46364;DHT22;32071;49.036;9.344;2024-01-15T06:57:59;-0.30;99.90
46364;DHT22;32071;49.036;9.344;2024-01-15T07:00:26;-0.30;99.90
46364;DHT22;32071;49.036;9.344;2024-01-15T07:02:53;-0.30;99.90
46364;DHT22;32071;49.036;9.344;2024-01-15T07:05:20;-0.30;99.90
46364;DHT22;32071;49.036;9.344;2024-01-15T07:07:45;-0.20;99.90
46364;DHT22;32071;49.036;9.344;2024-01-15T07:10:11;-0.20;99.90
46364;DHT22;32071;49.036;9.344;2024-01-15T07:12:36;-0.20;99.90
46364;DHT22;32071;49.036;9.344;2024-01-15T07:15:02;-0.20;99.90
46364;DHT22;32071;49.036;9.344;2024-01-15T07:17:29;-0.20;99.90
46364;DHT22;32071;49.036;9.344;2024-01-15T07:19:56;-0.20;99.90
46364;DHT22;32071;49.036;9.344;2024-01-15T07:22:21;-0.20;99.90
46364;DHT22;32071;49.036;9.344;2024-01-15T07:24:47;-0.20;99.90
46364;DHT22;32071;49.036;9.344;2024-01-15T07:27:12;-0.20;99.90
46364;DHT22;32071;49.036;9.344;2024-01-15T07:29:38;-0.10;99.90
46364;DHT22;32071;49.036;9.344;2024-01-15T07:32:04;-0.10;99.90
46364;DHT22;32071;49.036;9.344;2024-01-15T07:34:30;-0.10;99.90
46364;DHT22;32071;49.036;9.344;2024-01-15T07:36:57;-0.10;99.90
46364;DHT22;32071;49.036;9.344;2024-01-15T07:39:23;-0.10;99.90
46364;DHT22;32071;49.036;9.344;2024-01-15T07:41:53;-0.10;99.90
46364;DHT22;32071;49.036;9.344;2024-01-15T07:44:18;-0.10;99.90
46364;DHT22;32071;49.036;9.344;2024-01-15T07:46:45;0.00;99.90
46364;DHT22;32071;49.036;9.344;2024-01-15T07:49:11;0.00;99.90
46364;DHT22;32071;49.036;9.344;2024-01-15T07:51:37;0.00;99.90
46364;DHT22;32071;49.036;9.344;2024-01-15T07:54:02;0.00;99.90
46364;DHT22;32071;49.036;9.344;2024-01-15T07:56:28;0.00;99.90
46364;DHT22;32071;49.036;9.344;2024-01-15T07:58:54;0.00;99.90
46364;DHT22;32071;49.036;9.344;2024-01-15T08:01:19;0.00;99.90
46364;DHT22;32071;49.036;9.344;2024-01-15T08:03:45;0.00;99.90
46364;DHT22;32071;49.036;9.344;2024-01-15T08:06:10;-0.10;99.90
46364;DHT22;32071;49.036;9.344;2024-01-15T08:08:37;-0.10;99.90
46364;DHT22;32071;49.036;9.344;2024-01-15T08:11:03;-0.10;99.90
46364;DHT22;32071;49.036;9.344;2024-01-15T08:13:28;-0.10;99.90
46364;DHT22;32071;49.036;9.344;2024-01-15T08:15:54;-0.10;99.90
46364;DHT22;32071;49.036;9.344;2024-01-15T08:18:19;-0.10;99.90
46364;DHT22;32071;49.036;9.344;2024-01-15T08:20:47;-0.20;99.90
46364;DHT22;32071;49.036;9.344;2024-01-15T08:23:12;-0.10;99.90
46364;DHT22;32071;49.036;9.344;2024-01-15T08:25:38;-0.20;99.90
46364;DHT22;32071;49.036;9.344;2024-01-15T08:28:03;-0.20;99.90
46364;DHT22;32071;49.036;9.344;2024-01-15T08:30:29;-0.10;99.90
46364;DHT22;32071;49.036;9.344;2024-01-15T08:32:55;-0.10;99.90
46364;DHT22;32071;49.036;9.344;2024-01-15T08:35:21;-0.10;99.90
46364;DHT22;32071;49.036;9.344;2024-01-15T08:37:49;0.00;99.90
46364;DHT22;32071;49.036;9.344;2024-01-15T08:40:15;0.00;99.90
46364;DHT22;32071;49.036;9.344;2024-01-15T08:42:41;0.00;99.90
46364;DHT22;32071;49.036;9.344;2024-01-15T08:45:07;0.10;99.90
46364;DHT22;32071;49.036;9.344;2024-01-15T08:47:32;0.10;99.90
46364;DHT22;32071;49.036;9.344;2024-01-15T08:49:58;0.20;99.90
46364;DHT22;32071;49.036;9.344;2024-01-15T08:52:24;0.20;99.90
46364;DHT22;32071;49.036;9.344;2024-01-15T08:54:50;0.30;99.90
46364;DHT22;32071;49.036;9.344;2024-01-15T08:57:15;0.30;99.90
46364;DHT22;32071;49.036;9.344;2024-01-15T08:59:41;0.30;99.90
46364;DHT22;32071;49.036;9.344;2024-01-15T09:02:07;0.30;99.90
46364;DHT22;32071;49.036;9.344;2024-01-15T09:04:33;0.40;99.90
46364;DHT22;32071;49.036;9.344;2024-01-15T09:06:58;0.40;99.90
46364;DHT22;32071;49.036;9.344;2024-01-15T09:09:24;0.50;99.90
46364;DHT22;32071;49.036;9.344;2024-01-15T09:11:51;0.50;99.90
46364;DHT22;32071;49.036;9.344;2024-01-15T09:14:16;0.50;99.90
46364;DHT22;32071;49.036;9.344;2024-01-15T09:16:42;0.60;99.90
46364;DHT22;32071;49.036;9.344;2024-01-15T09:19:08;0.60;99.90
46364;DHT22;32071;49.036;9.344;2024-01-15T09:21:33;0.60;99.90
46364;DHT22;32071;49.036;9.344;2024-01-15T09:23:59;0.70;99.90
46364;DHT22;32071;49.036;9.344;2024-01-15T09:26:24;0.60;99.90
46364;DHT22;32071;49.036;9.344;2024-01-15T09:28:50;0.60;99.90
46364;DHT22;32071;49.036;9.344;2024-01-15T09:31:16;0.60;99.90
46364;DHT22;32071;49.036;9.344;2024-01-15T09:33:43;0.60;99.90
46364;DHT22;32071;49.036;9.344;2024-01-15T09:36:08;0.60;99.90
46364;DHT22;32071;49.036;9.344;2024-01-15T09:38:34;0.60;99.90
46364;DHT22;32071;49.036;9.344;2024-01-15T09:41:00;0.70;99.90
46364;DHT22;32071;49.036;9.344;2024-01-15T09:43:26;0.70;99.90
46364;DHT22;32071;49.036;9.344;2024-01-15T09:45:51;0.70;99.90
46364;DHT22;32071;49.036;9.344;2024-01-15T09:48:18;0.70;99.90
46364;DHT22;32071;49.036;9.344;2024-01-15T09:50:44;0.70;99.90
46364;DHT22;32071;49.036;9.344;2024-01-15T09:53:11;0.70;99.90
46364;DHT22;32071;49.036;9.344;2024-01-15T09:55:37;0.60;99.90
46364;DHT22;32071;49.036;9.344;2024-01-15T09:58:05;0.60;99.90
46364;DHT22;32071;49.036;9.344;2024-01-15T10:00:31;0.60;99.90
46364;DHT22;32071;49.036;9.344;2024-01-15T10:02:58;0.60;99.90
46364;DHT22;32071;49.036;9.344;2024-01-15T10:05:26;0.70;99.90
46364;DHT22;32071;49.036;9.344;2024-01-15T10:07:53;0.70;99.90
46364;DHT22;32071;49.036;9.344;2024-01-15T10:10:20;0.70;99.90
46364;DHT22;32071;49.036;9.344;2024-01-15T10:12:47;0.70;99.90
46364;DHT22;32071;49.036;9.344;2024-01-15T10:15:12;0.70;99.90
46364;DHT22;32071;49.036;9.344;2024-01-15T10:17:39;0.70;99.90
46364;DHT22;32071;49.036;9.344;2024-01-15T10:20:12;0.70;99.90
46364;DHT22;32071;49.036;9.344;2024-01-15T10:22:42;0.80;99.90
46364;DHT22;32071;49.036;9.344;2024-01-15T10:25:14;0.80;99.90
46364;DHT22;32071;49.036;9.344;2024-01-15T10:27:40;0.80;99.90
46364;DHT22;32071;49.036;9.344;2024-01-15T10:30:10;0.80;99.90
46364;DHT22;32071;49.036;9.344;2024-01-15T10:32:37;0.80;99.90
46364;DHT22;32071;49.036;9.344;2024-01-15T10:35:03;0.90;99.90
46364;DHT22;32071;49.036;9.344;2024-01-15T10:37:33;0.90;99.90
46364;DHT22;32071;49.036;9.344;2024-01-15T10:40:01;0.90;99.90
46364;DHT22;32071;49.036;9.344;2024-01-15T10:42:27;0.90;99.90
46364;DHT22;32071;49.036;9.344;2024-01-15T10:44:53;0.90;99.90
46364;DHT22;32071;49.036;9.344;2024-01-15T10:47:19;0.90;99.90
46364;DHT22;32071;49.036;9.344;2024-01-15T10:49:45;0.90;99.90
46364;DHT22;32071;49.036;9.344;2024-01-15T10:52:11;0.90;99.90
46364;DHT22;32071;49.036;9.344;2024-01-15T10:54:37;0.90;99.90
46364;DHT22;32071;49.036;9.344;2024-01-15T10:57:04;0.90;99.90
46364;DHT22;32071;49.036;9.344;2024-01-15T10:59:31;0.90;99.90
46364;DHT22;32071;49.036;9.344;2024-01-15T11:01:56;0.90;99.90
46364;DHT22;32071;49.036;9.344;2024-01-15T11:04:23;0.90;99.90
46364;DHT22;32071;49.036;9.344;2024-01-15T11:06:52;0.90;99.90
46364;DHT22;32071;49.036;9.344;2024-01-15T11:09:19;0.90;99.90
46364;DHT22;32071;49.036;9.344;2024-01-15T11:11:45;0.90;99.90
46364;DHT22;32071;49.036;9.344;2024-01-15T11:15:00;0.80;99.90
46364;DHT22;32071;49.036;9.344;2024-01-15T11:17:22;0.90;99.90
46364;DHT22;32071;49.036;9.344;2024-01-15T11:19:49;0.80;99.90
46364;DHT22;32071;49.036;9.344;2024-01-15T11:24:55;0.70;99.90
46364;DHT22;32071;49.036;9.344;2024-01-15T11:27:44;0.70;99.90
46364;DHT22;32071;49.036;9.344;2024-01-15T11:30:12;0.60;99.90
46364;DHT22;32071;49.036;9.344;2024-01-15T11:32:38;0.50;99.90
46364;DHT22;32071;49.036;9.344;2024-01-15T11:35:07;0.50;99.90
46364;DHT22;32071;49.036;9.344;2024-01-15T11:40:21;0.40;99.90
46364;DHT22;32071;49.036;9.344;2024-01-15T11:42:48;0.40;99.90
46364;DHT22;32071;49.036;9.344;2024-01-15T11:45:22;0.40;99.90
46364;DHT22;32071;49.036;9.344;2024-01-15T11:48:10;0.50;99.90
46364;DHT22;32071;49.036;9.344;2024-01-15T11:50:46;0.50;99.90
46364;DHT22;32071;49.036;9.344;2024-01-15T11:55:51;0.50;99.90
46364;DHT22;32071;49.036;9.344;2024-01-15T11:58:17;0.50;99.90
46364;DHT22;32071;49.036;9.344;2024-01-15T12:00:44;0.50;99.90
46364;DHT22;32071;49.036;9.344;2024-01-15T12:03:11;0.50;99.90
46364;DHT22;32071;49.036;9.344;2024-01-15T12:05:37;0.50;99.90
46364;DHT22;32071;49.036;9.344;2024-01-15T12:08:04;0.50;99.90
46364;DHT22;32071;49.036;9.344;2024-01-15T12:10:36;0.40;99.90
46364;DHT22;32071;49.036;9.344;2024-01-15T12:15:37;0.50;99.90
46364;DHT22;32071;49.036;9.344;2024-01-15T12:18:03;0.60;99.90
46364;DHT22;32071;49.036;9.344;2024-01-15T12:20:30;0.60;99.90
46364;DHT22;32071;49.036;9.344;2024-01-15T12:22:56;0.60;99.90
46364;DHT22;32071;49.036;9.344;2024-01-15T12:25:23;0.50;99.90
46364;DHT22;32071;49.036;9.344;2024-01-15T12:27:49;0.60;99.90
46364;DHT22;32071;49.036;9.344;2024-01-15T12:30:14;0.50;99.90
46364;DHT22;32071;49.036;9.344;2024-01-15T12:32:44;0.50;99.90
46364;DHT22;32071;49.036;9.344;2024-01-15T12:35:10;0.50;99.90
46364;DHT22;32071;49.036;9.344;2024-01-15T12:37:37;0.50;99.90
46364;DHT22;32071;49.036;9.344;2024-01-15T12:40:04;0.50;99.90
46364;DHT22;32071;49.036;9.344;2024-01-15T12:42:38;0.50;99.90
46364;DHT22;32071;49.036;9.344;2024-01-15T12:45:11;0.50;99.90
46364;DHT22;32071;49.036;9.344;2024-01-15T12:47:38;0.40;99.90
46364;DHT22;32071;49.036;9.344;2024-01-15T12:50:09;0.40;99.90
46364;DHT22;32071;49.036;9.344;2024-01-15T12:52:35;0.40;99.90
46364;DHT22;32071;49.036;9.344;2024-01-15T12:55:06;0.50;99.90
46364;DHT22;32071;49.036;9.344;2024-01-15T12:57:32;0.50;99.90
46364;DHT22;32071;49.036;9.344;2024-01-15T12:59:57;0.50;99.90
46364;DHT22;32071;49.036;9.344;2024-01-15T13:02:23;0.50;99.90
46364;DHT22;32071;49.036;9.344;2024-01-15T13:04:49;0.60;99.90
46364;DHT22;32071;49.036;9.344;2024-01-15T13:07:15;0.50;99.90
46364;DHT22;32071;49.036;9.344;2024-01-15T13:09:40;0.50;99.90
46364;DHT22;32071;49.036;9.344;2024-01-15T13:12:06;0.50;99.90
46364;DHT22;32071;49.036;9.344;2024-01-15T13:14:32;0.50;99.90
46364;DHT22;32071;49.036;9.344;2024-01-15T13:16:58;0.40;99.90
46364;DHT22;32071;49.036;9.344;2024-01-15T13:19:25;0.40;99.90
46364;DHT22;32071;49.036;9.344;2024-01-15T13:21:50;0.40;99.90
46364;DHT22;32071;49.036;9.344;2024-01-15T13:24:17;0.40;99.90
46364;DHT22;32071;49.036;9.344;2024-01-15T13:26:42;0.40;99.90
46364;DHT22;32071;49.036;9.344;2024-01-15T13:29:08;0.40;99.90
46364;DHT22;32071;49.036;9.344;2024-01-15T13:31:33;0.40;99.90
46364;DHT22;32071;49.036;9.344;2024-01-15T13:33:59;0.40;99.90
46364;DHT22;32071;49.036;9.344;2024-01-15T13:36:26;0.30;99.90
46364;DHT22;32071;49.036;9.344;2024-01-15T13:38:52;0.40;99.90
46364;DHT22;32071;49.036;9.344;2024-01-15T13:41:22;0.40;99.90
46364;DHT22;32071;49.036;9.344;2024-01-15T13:43:50;0.40;99.90
46364;DHT22;32071;49.036;9.344;2024-01-15T13:46:18;0.40;99.90
46364;DHT22;32071;49.036;9.344;2024-01-15T13:48:44;0.40;99.90
46364;DHT22;32071;49.036;9.344;2024-01-15T13:51:09;0.50;99.90
46364;DHT22;32071;49.036;9.344;2024-01-15T13:53:37;0.50;99.90
46364;DHT22;32071;49.036;9.344;2024-01-15T13:56:03;0.50;99.90
46364;DHT22;32071;49.036;9.344;2024-01-15T13:58:30;0.50;99.90
46364;DHT22;32071;49.036;9.344;2024-01-15T14:00:56;0.50;99.90
46364;DHT22;32071;49.036;9.344;2024-01-15T14:03:22;0.50;99.90
46364;DHT22;32071;49.036;9.344;2024-01-15T14:05:47;0.50;99.90
46364;DHT22;32071;49.036;9.344;2024-01-15T14:08:13;0.50;99.90
46364;DHT22;32071;49.036;9.344;2024-01-15T14:10:39;0.50;99.90
46364;DHT22;32071;49.036;9.344;2024-01-15T14:13:05;0.50;99.90
46364;DHT22;32071;49.036;9.344;2024-01-15T14:15:30;0.50;99.90
46364;DHT22;32071;49.036;9.344;2024-01-15T14:17:56;0.60;99.90
46364;DHT22;32071;49.036;9.344;2024-01-15T14:20:23;0.50;99.90
46364;DHT22;32071;49.036;9.344;2024-01-15T14:22:49;0.50;99.90
46364;DHT22;32071;49.036;9.344;2024-01-15T14:25:15;0.50;99.90
46364;DHT22;32071;49.036;9.344;2024-01-15T14:27:40;0.40;99.90
46364;DHT22;32071;49.036;9.344;2024-01-15T14:30:06;0.40;99.90
46364;DHT22;32071;49.036;9.344;2024-01-15T14:32:34;0.40;99.90
46364;DHT22;32071;49.036;9.344;2024-01-15T14:34:59;0.40;99.90
46364;DHT22;32071;49.036;9.344;2024-01-15T14:37:25;0.40;99.90
46364;DHT22;32071;49.036;9.344;2024-01-15T14:39:51;0.40;99.90
46364;DHT22;32071;49.036;9.344;2024-01-15T14:42:17;0.40;99.90
46364;DHT22;32071;49.036;9.344;2024-01-15T14:44:43;0.40;99.90
46364;DHT22;32071;49.036;9.344;2024-01-15T14:47:08;0.40;99.90
46364;DHT22;32071;49.036;9.344;2024-01-15T14:49:34;0.50;99.90
46364;DHT22;32071;49.036;9.344;2024-01-15T14:52:00;0.50;99.90
46364;DHT22;32071;49.036;9.344;2024-01-15T14:54:25;0.40;99.90
46364;DHT22;32071;49.036;9.344;2024-01-15T14:56:51;0.40;99.90
46364;DHT22;32071;49.036;9.344;2024-01-15T14:59:17;0.40;99.90
46364;DHT22;32071;49.036;9.344;2024-01-15T15:01:42;0.40;99.90
46364;DHT22;32071;49.036;9.344;2024-01-15T15:04:08;0.40;99.90
46364;DHT22;32071;49.036;9.344;2024-01-15T15:06:36;0.30;99.90
46364;DHT22;32071;49.036;9.344;2024-01-15T15:09:02;0.40;99.90
46364;DHT22;32071;49.036;9.344;2024-01-15T15:11:34;0.40;99.90
46364;DHT22;32071;49.036;9.344;2024-01-15T15:14:00;0.40;99.90
46364;DHT22;32071;49.036;9.344;2024-01-15T15:16:26;0.40;99.90
46364;DHT22;32071;49.036;9.344;2024-01-15T15:18:52;0.40;99.90
46364;DHT22;32071;49.036;9.344;2024-01-15T15:21:18;0.40;99.90
46364;DHT22;32071;49.036;9.344;2024-01-15T15:23:44;0.30;99.90
46364;DHT22;32071;49.036;9.344;2024-01-15T15:26:09;0.40;99.90
46364;DHT22;32071;49.036;9.344;2024-01-15T15:28:35;0.30;99.90
46364;DHT22;32071;49.036;9.344;2024-01-15T15:31:04;0.30;99.90
46364;DHT22;32071;49.036;9.344;2024-01-15T15:33:29;0.40;99.90
46364;DHT22;32071;49.036;9.344;2024-01-15T15:35:55;0.30;99.90
46364;DHT22;32071;49.036;9.344;2024-01-15T15:38:20;0.30;99.90
46364;DHT22;32071;49.036;9.344;2024-01-15T15:40:47;0.30;99.90
46364;DHT22;32071;49.036;9.344;2024-01-15T15:43:13;0.30;99.90